Time;durP1;ratioP1;P1;durP2;ratioP2;P2;SDS_P1;SDS_P2;PMS_P1;PMS_P2;Temp;Humidity;BMP_temperature;BMP_pressure;BME280_temperature;BME280_humidity;BME280_pressure;Samples;Min_cycle;Max_cycle;Signal;HPM_P1;HPM_P2
2024/01/12 00:01:18;;;;;;;2.63;2.43;;;;;;;-146.42;100.00;61981.06;4973374;28;20189;-65
2024/01/12 00:03:43;;;;;;;0.80;0.80;;;;;;;-146.42;100.00;61981.06;4972908;28;20229;-65
2024/01/12 00:06:09;;;;;;;3.00;2.80;;;;;;;-146.42;100.00;61981.06;4955614;28;20173;-65
2024/01/12 00:08:37;;;;;;;0.80;0.80;;;;;;;-146.42;100.00;61981.06;4972349;28;20178;-65
2024/01/12 00:11:03;;;;;;;0.70;0.70;;;;;;;-146.42;100.00;61981.06;4955748;28;20555;-65
2024/01/12 00:13:28;;;;;;;0.70;0.70;;;;;;;-146.42;100.00;61981.06;4973003;28;20182;-65
2024/01/12 00:15:54;;;;;;;1.43;1.20;;;;;;;-146.42;100.00;61981.06;4973143;28;20187;-65
2024/01/12 00:18:19;;;;;;;0.60;0.60;;;;;;;-146.42;100.00;61981.06;4980772;28;21091;-65
2024/01/12 00:20:45;;;;;;;1.33;1.33;;;;;;;-146.42;100.00;61981.06;4972658;28;20244;-64
2024/01/12 00:23:10;;;;;;;5.70;2.10;;;;;;;-146.42;100.00;61981.06;4972651;28;20681;-64
2024/01/12 00:25:36;;;;;;;0.70;0.70;;;;;;;-146.42;100.00;61981.06;4972689;28;20209;-65
2024/01/12 00:28:01;;;;;;;0.60;0.60;;;;;;;-146.42;100.00;61981.06;4972502;28;20228;-65
2024/01/12 00:30:27;;;;;;;2.70;2.50;;;;;;;-146.42;100.00;61981.06;4972645;28;20733;-65
2024/01/12 00:32:52;;;;;;;3.50;2.10;;;;;;;-146.42;100.00;61981.06;4955212;28;20178;-64
2024/01/12 00:35:18;;;;;;;1.27;1.20;;;;;;;-146.42;100.00;61981.06;4972479;28;20205;-65
2024/01/12 00:37:43;;;;;;;0.90;0.90;;;;;;;-146.42;100.00;61981.06;4972428;28;20657;-65
2024/01/12 00:40:09;;;;;;;1.93;1.83;;;;;;;-146.42;100.00;61981.06;4972505;28;20292;-65
2024/01/12 00:42:35;;;;;;;0.60;0.60;;;;;;;-146.42;100.00;61981.06;4972549;28;20228;-65
2024/01/12 00:45:00;;;;;;;0.60;0.60;;;;;;;-146.42;100.00;61981.06;4972559;28;20224;-65
2024/01/12 00:47:26;;;;;;;2.73;2.57;;;;;;;-146.42;100.00;61981.06;4972329;28;20170;-65
2024/01/12 00:49:51;;;;;;;4.63;1.37;;;;;;;-146.42;100.00;61981.06;4972344;28;20177;-64
2024/01/12 00:52:17;;;;;;;0.83;0.83;;;;;;;-146.42;100.00;61981.06;4972503;28;20294;-65
2024/01/12 00:54:42;;;;;;;0.87;0.87;;;;;;;-146.42;100.00;61981.06;4972348;28;20181;-66
2024/01/12 00:57:08;;;;;;;4.40;2.87;;;;;;;-146.42;100.00;61981.06;4972263;28;20257;-65
2024/01/12 00:59:33;;;;;;;0.70;0.70;;;;;;;-146.42;100.00;61981.06;4972118;28;20335;-65
2024/01/12 01:01:59;;;;;;;0.80;0.80;;;;;;;-146.42;100.00;61981.06;4972058;28;20185;-65
2024/01/12 01:04:25;;;;;;;0.90;0.90;;;;;;;-146.42;100.00;61981.06;4972067;28;20605;-65
2024/01/12 01:06:52;;;;;;;1.00;1.00;;;;;;;-146.42;100.00;61981.06;4972001;28;20185;-65
2024/01/12 01:09:18;;;;;;;0.70;0.70;;;;;;;-146.42;100.00;61981.06;4971954;28;20248;-65
2024/01/12 01:11:44;;;;;;;0.70;0.70;;;;;;;-146.42;100.00;61981.06;4971864;28;20641;-65
2024/01/12 01:14:09;;;;;;;0.87;0.87;;;;;;;-146.42;100.00;61981.06;4972010;28;20178;-65
2024/01/12 01:16:35;;;;;;;0.90;0.90;;;;;;;-146.42;100.00;61981.06;4972089;28;20268;-64
2024/01/12 01:19:00;;;;;;;1.27;1.27;;;;;;;-146.42;100.00;61981.06;4971423;28;20657;-65
2024/01/12 01:21:26;;;;;;;0.67;0.67;;;;;;;-146.42;100.00;61981.06;4971966;28;20660;-65
2024/01/12 01:23:52;;;;;;;0.60;0.60;;;;;;;-146.42;100.00;61981.06;4971907;28;20221;-65
2024/01/12 01:26:17;;;;;;;0.60;0.60;;;;;;;-146.42;100.00;61981.06;4972003;28;20212;-65
2024/01/12 01:28:43;;;;;;;1.33;0.80;;;;;;;-146.42;100.00;61981.06;4971722;28;20225;-65
2024/01/12 01:31:08;;;;;;;1.03;1.03;;;;;;;-146.42;100.00;61981.06;4971952;28;20672;-65
2024/01/12 01:33:34;;;;;;;1.00;1.00;;;;;;;-146.42;100.00;61981.06;4971849;28;20275;-65
2024/01/12 01:35:59;;;;;;;0.70;0.70;;;;;;;-146.42;100.00;61981.06;4971597;28;20184;-65
2024/01/12 01:38:25;;;;;;;1.00;1.00;;;;;;;-146.42;100.00;61981.06;4971605;28;20271;-65
2024/01/12 01:40:50;;;;;;;0.60;0.60;;;;;;;-146.42;100.00;61981.06;4971630;28;20190;-65
2024/01/12 01:43:16;;;;;;;4.13;2.90;;;;;;;-146.42;100.00;61981.06;4954389;28;20232;-65
2024/01/12 01:45:41;;;;;;;0.70;0.70;;;;;;;-146.42;100.00;61981.06;4971526;28;20421;-64
2024/01/12 01:48:08;;;;;;;0.60;0.60;;;;;;;-146.42;100.00;61981.06;4971610;28;20190;-65
2024/01/12 01:50:35;;;;;;;2.80;2.60;;;;;;;-146.42;100.00;61981.06;4971575;28;20645;-65
2024/01/12 01:53:03;;;;;;;0.90;0.90;;;;;;;-146.42;100.00;61981.06;4971529;28;20645;-65
2024/01/12 01:55:30;;;;;;;0.60;0.60;;;;;;;-146.42;100.00;61981.06;4971538;28;20174;-65
2024/01/12 01:57:57;;;;;;;0.60;0.60;;;;;;;-146.42;100.00;61981.06;4971494;28;20165;-65
2024/01/12 02:00:23;;;;;;;1.70;1.60;;;;;;;-146.42;100.00;61981.06;4971565;28;20199;-65
2024/01/12 02:02:49;;;;;;;1.03;1.03;;;;;;;-146.42;100.00;61981.06;4971386;28;20285;-65
2024/01/12 02:05:15;;;;;;;0.60;0.60;;;;;;;-146.42;100.00;61981.06;4971659;28;20190;-65
2024/01/12 02:07:41;;;;;;;0.63;0.63;;;;;;;-146.42;100.00;61981.06;4971546;28;20404;-66
2024/01/12 02:10:08;;;;;;;0.80;0.80;;;;;;;-146.42;100.00;61981.06;4971405;28;20177;-65
2024/01/12 02:12:37;;;;;;;1.97;1.97;;;;;;;-146.42;100.00;61981.06;4971598;28;20252;-65
2024/01/12 02:15:07;;;;;;;0.70;0.70;;;;;;;-146.42;100.00;61981.06;4971527;28;20178;-65
2024/01/12 02:17:34;;;;;;;0.60;0.60;;;;;;;-146.42;100.00;61981.06;4971316;28;20189;-65
2024/01/12 02:20:00;;;;;;;0.80;0.80;;;;;;;-146.42;100.00;61981.06;4953942;28;20551;-65
2024/01/12 02:22:26;;;;;;;0.60;0.60;;;;;;;-146.42;100.00;61981.06;4971373;28;20182;-65
2024/01/12 02:24:52;;;;;;;0.70;0.70;;;;;;;-146.42;100.00;61981.06;4971266;28;20178;-65
2024/01/12 02:27:18;;;;;;;0.70;0.70;;;;;;;-146.42;100.00;61981.06;4971161;28;20282;-65
2024/01/12 02:29:44;;;;;;;0.70;0.70;;;;;;;-146.42;100.00;61981.06;4971194;28;20653;-65
2024/01/12 02:32:10;;;;;;;2.10;2.00;;;;;;;-146.42;100.00;61981.06;4974715;28;20739;-65
2024/01/12 02:34:35;;;;;;;0.70;0.70;;;;;;;-146.42;100.00;61981.06;4974839;28;20177;-65
2024/01/12 02:37:01;;;;;;;0.70;0.70;;;;;;;-146.42;100.00;61981.06;4978830;28;20188;-65
2024/01/12 02:39:26;;;;;;;0.70;0.70;;;;;;;-146.42;100.00;61981.06;4994106;28;20201;-65
2024/01/12 02:41:51;;;;;;;0.70;0.70;;;;;;;-146.42;100.00;61981.06;4994233;28;20268;-65
2024/01/12 02:44:17;;;;;;;0.70;0.70;;;;;;;-146.42;100.00;61981.06;4994405;28;20597;-65
2024/01/12 02:46:42;;;;;;;0.70;0.70;;;;;;;-146.42;100.00;61981.06;4993934;28;20570;-65
2024/01/12 02:49:08;;;;;;;0.90;0.90;;;;;;;-146.42;100.00;61981.06;4994102;28;20177;-65
2024/01/12 02:51:34;;;;;;;0.60;0.60;;;;;;;-146.42;100.00;61981.06;4994031;28;20181;-65
2024/01/12 02:54:00;;;;;;;0.70;0.70;;;;;;;-146.42;100.00;61981.06;4993871;28;20726;-65
2024/01/12 02:56:25;;;;;;;13.03;12.30;;;;;;;-146.42;100.00;61981.06;4993762;28;20191;-64
2024/01/12 02:58:51;;;;;;;0.90;0.90;;;;;;;-146.42;100.00;61981.06;4993879;28;20181;-64
2024/01/12 03:01:19;;;;;;;0.73;0.73;;;;;;;-146.42;100.00;61981.06;4993902;28;20215;-64
2024/01/12 03:03:45;;;;;;;0.60;0.60;;;;;;;-146.42;100.00;61981.06;4993426;28;20220;-65
2024/01/12 03:06:10;;;;;;;0.70;0.70;;;;;;;-146.42;100.00;61981.06;4993923;28;20652;-65
2024/01/12 03:08:36;;;;;;;0.60;0.60;;;;;;;-146.42;100.00;61981.06;4975029;28;20181;-65
2024/01/12 03:11:02;;;;;;;0.50;0.50;;;;;;;-146.42;100.00;61981.06;4972911;28;20859;-65
2024/01/12 03:13:28;;;;;;;0.70;0.70;;;;;;;-146.42;100.00;61981.06;4974269;28;20181;-65
2024/01/12 03:15:53;;;;;;;0.60;0.60;;;;;;;-146.42;100.00;61981.06;4974041;28;20240;-65
2024/01/12 03:18:19;;;;;;;0.60;0.60;;;;;;;-146.42;100.00;61981.06;4974204;28;20645;-65
2024/01/12 03:20:45;;;;;;;0.90;0.90;;;;;;;-146.42;100.00;61981.06;4974043;28;20202;-65
2024/01/12 03:23:10;;;;;;;0.83;0.83;;;;;;;-146.42;100.00;61981.06;4974198;28;20189;-65
2024/01/12 03:25:35;;;;;;;0.70;0.70;;;;;;;-146.42;100.00;61981.06;4974219;28;20178;-65
2024/01/12 03:28:01;;;;;;;0.60;0.60;;;;;;;-146.42;100.00;61981.06;4974119;28;21032;-64
2024/01/12 03:30:26;;;;;;;0.80;0.80;;;;;;;-146.42;100.00;61981.06;4973876;28;20197;-65
2024/01/12 03:32:52;;;;;;;0.67;0.67;;;;;;;-146.42;100.00;61981.06;4973890;28;20238;-65
2024/01/12 03:35:17;;;;;;;0.70;0.70;;;;;;;-146.42;100.00;61981.06;4973818;28;20213;-65
2024/01/12 03:37:43;;;;;;;4.03;2.03;;;;;;;-146.42;100.00;61981.06;4973877;28;20181;-65
2024/01/12 03:40:09;;;;;;;4.10;3.90;;;;;;;-146.42;100.00;61981.06;4973751;28;20189;-65
2024/01/12 03:42:34;;;;;;;1.17;1.17;;;;;;;-146.42;100.00;61981.06;4973493;28;20205;-64
2024/01/12 03:45:00;;;;;;;0.60;0.60;;;;;;;-146.42;100.00;61981.06;4973662;28;20169;-65
2024/01/12 03:47:25;;;;;;;0.73;0.73;;;;;;;-146.42;100.00;61981.06;4973637;28;20185;-65
2024/01/12 03:49:51;;;;;;;2.60;2.40;;;;;;;-146.42;100.00;61981.06;4973574;28;20256;-64
2024/01/12 03:52:16;;;;;;;14.90;13.93;;;;;;;-146.42;100.00;61981.06;4975908;28;20189;-64
2024/01/12 03:54:42;;;;;;;0.80;0.80;;;;;;;-146.42;100.00;61981.06;4977939;28;20269;-64
2024/01/12 03:57:07;;;;;;;0.70;0.70;;;;;;;-146.42;100.00;61981.06;4973380;28;20562;-64
2024/01/12 03:59:33;;;;;;;0.63;0.63;;;;;;;-146.42;100.00;61981.06;4973326;28;20284;-65
2024/01/12 04:01:58;;;;;;;1.70;1.67;;;;;;;-146.42;100.00;61981.06;4973623;28;20196;-65
2024/01/12 04:04:24;;;;;;;0.70;0.70;;;;;;;-146.42;100.00;61981.06;4973147;28;20629;-65
2024/01/12 04:06:49;;;;;;;0.60;0.60;;;;;;;-146.42;100.00;61981.06;4973390;28;20193;-64
2024/01/12 04:09:15;;;;;;;0.60;0.60;;;;;;;-146.42;100.00;61981.06;4970537;28;20185;-64
2024/01/12 04:11:41;;;;;;;0.80;0.80;;;;;;;-146.42;100.00;61981.06;4973238;28;20232;-65
2024/01/12 04:14:06;;;;;;;0.60;0.60;;;;;;;-146.42;100.00;61981.06;4973051;28;20265;-65
2024/01/12 04:16:32;;;;;;;1.00;1.00;;;;;;;-146.42;100.00;61981.06;4973205;28;20544;-64
2024/01/12 04:18:57;;;;;;;1.10;1.10;;;;;;;-146.42;100.00;61981.06;4973038;28;20614;-65
2024/01/12 04:21:23;;;;;;;0.70;0.70;;;;;;;-146.42;100.00;61981.06;4973070;28;20240;-65
2024/01/12 04:23:48;;;;;;;0.60;0.60;;;;;;;-146.42;100.00;61981.06;4973011;28;20180;-64
2024/01/12 04:26:14;;;;;;;0.60;0.60;;;;;;;-146.42;100.00;61981.06;4972937;28;20253;-64
2024/01/12 04:28:40;;;;;;;0.60;0.60;;;;;;;-146.42;100.00;61981.06;4972870;28;20178;-64
2024/01/12 04:31:05;;;;;;;0.70;0.70;;;;;;;-146.42;100.00;61981.06;4972860;28;20174;-64
2024/01/12 04:33:31;;;;;;;0.60;0.60;;;;;;;-146.42;100.00;61981.06;4972719;28;20213;-64
2024/01/12 04:35:58;;;;;;;0.70;0.70;;;;;;;-146.42;100.00;61981.06;4972861;28;20177;-65
2024/01/12 04:38:24;;;;;;;1.33;1.33;;;;;;;-146.42;100.00;61981.06;4972959;28;20178;-65
2024/01/12 04:40:50;;;;;;;0.67;0.67;;;;;;;-146.42;100.00;61981.06;4972849;28;20201;-65
2024/01/12 04:43:16;;;;;;;0.60;0.60;;;;;;;-146.42;100.00;61981.06;4972696;28;20169;-65
2024/01/12 04:45:41;;;;;;;1.30;1.20;;;;;;;-146.42;100.00;61981.06;4972468;28;20177;-65
2024/01/12 04:48:07;;;;;;;1.03;1.03;;;;;;;-146.42;100.00;61981.06;4972473;28;20184;-65
2024/01/12 04:50:32;;;;;;;24.33;21.97;;;;;;;-146.42;100.00;61981.06;4972543;28;20201;-65
2024/01/12 04:52:58;;;;;;;0.60;0.60;;;;;;;-146.42;100.00;61981.06;4971842;28;20205;-64
2024/01/12 04:55:23;;;;;;;0.70;0.70;;;;;;;-146.42;100.00;61981.06;4972462;28;20545;-64
2024/01/12 04:57:49;;;;;;;0.70;0.70;;;;;;;-146.42;100.00;61981.06;4972386;28;20180;-64
2024/01/12 05:00:16;;;;;;;0.70;0.70;;;;;;;-146.42;100.00;61981.06;4972247;28;20232;-65
2024/01/12 05:02:41;;;;;;;2.37;2.27;;;;;;;-146.42;100.00;61981.06;4972261;28;20308;-65
2024/01/12 05:05:08;;;;;;;4.93;2.93;;;;;;;-146.42;100.00;61981.06;4972324;28;20700;-65
2024/01/12 05:07:34;;;;;;;0.67;0.67;;;;;;;-146.42;100.00;61981.06;4972228;28;20169;-65
2024/01/12 05:10:00;;;;;;;1.20;1.20;;;;;;;-146.42;100.00;61981.06;4972199;28;20166;-64
2024/01/12 05:12:25;;;;;;;1.00;0.97;;;;;;;-146.42;100.00;61981.06;4972078;28;20608;-65
2024/01/12 05:14:51;;;;;;;1.00;1.00;;;;;;;-146.42;100.00;61981.06;4972190;28;20593;-65
2024/01/12 05:17:16;;;;;;;0.70;0.70;;;;;;;-146.42;100.00;61981.06;4972105;28;20165;-65
2024/01/12 05:19:42;;;;;;;0.70;0.70;;;;;;;-146.42;100.00;61981.06;4972056;28;20277;-65
2024/01/12 05:22:07;;;;;;;0.60;0.60;;;;;;;-146.42;100.00;61981.06;4972020;28;20165;-64
2024/01/12 05:24:33;;;;;;;0.70;0.70;;;;;;;-146.42;100.00;61981.06;4971830;28;20174;-66
2024/01/12 05:26:59;;;;;;;0.67;0.67;;;;;;;-146.42;100.00;61981.06;4971993;28;20176;-66
2024/01/12 05:29:24;;;;;;;1.77;1.70;;;;;;;-146.42;100.00;61981.06;4971819;28;20170;-66
2024/01/12 05:31:50;;;;;;;1.23;1.23;;;;;;;-146.42;100.00;61981.06;4971942;28;20560;-66
2024/01/12 05:34:16;;;;;;;0.63;0.63;;;;;;;-146.42;100.00;61981.06;4971870;28;20660;-65
2024/01/12 05:36:41;;;;;;;0.57;0.57;;;;;;;-146.42;100.00;61981.06;4971707;28;20185;-64
2024/01/12 05:39:07;;;;;;;2.00;1.90;;;;;;;-146.42;100.00;61981.06;4971783;28;20186;-65
2024/01/12 05:41:32;;;;;;;1.20;1.20;;;;;;;-146.42;100.00;61981.06;4971722;28;20781;-65
2024/01/12 05:43:58;;;;;;;0.70;0.70;;;;;;;-146.42;100.00;61981.06;4971834;28;20247;-65
2024/01/12 05:46:23;;;;;;;1.67;1.67;;;;;;;-146.42;100.00;61981.06;4971811;28;20170;-65
2024/01/12 05:48:49;;;;;;;0.70;0.70;;;;;;;-146.42;100.00;61981.06;4971844;28;20267;-66
2024/01/12 05:51:15;;;;;;;0.63;0.63;;;;;;;-146.42;100.00;61981.06;4971750;28;20675;-65
2024/01/12 05:53:41;;;;;;;1.73;1.63;;;;;;;-146.42;100.00;61981.06;4971703;28;20184;-64
2024/01/12 05:56:07;;;;;;;1.00;0.97;;;;;;;-146.42;100.00;61981.06;4971747;28;20173;-64
2024/01/12 05:58:32;;;;;;;2.37;1.73;;;;;;;-146.42;100.00;61981.06;4971863;28;20626;-64
2024/01/12 06:00:59;;;;;;;2.10;1.90;;;;;;;-146.42;100.00;61981.06;4954355;28;20225;-65
2024/01/12 06:03:28;;;;;;;0.80;0.80;;;;;;;-146.42;100.00;61981.06;4971360;28;20228;-65
2024/01/12 06:05:54;;;;;;;1.00;1.00;;;;;;;-146.42;100.00;61981.06;4973483;28;20205;-66
2024/01/12 06:08:19;;;;;;;0.80;0.80;;;;;;;-146.42;100.00;61981.06;4975621;28;20232;-65
2024/01/12 06:10:45;;;;;;;1.23;1.03;;;;;;;-146.42;100.00;61981.06;4975320;28;20169;-65
2024/01/12 06:13:10;;;;;;;0.70;0.70;;;;;;;-146.42;100.00;61981.06;4975358;28;20174;-65
2024/01/12 06:15:36;;;;;;;0.60;0.60;;;;;;;-146.42;100.00;61981.06;4975338;28;20170;-65
2024/01/12 06:18:01;;;;;;;1.23;1.23;;;;;;;-146.42;100.00;61981.06;4975148;28;20174;-65
2024/01/12 06:20:27;;;;;;;0.60;0.60;;;;;;;-146.42;100.00;61981.06;4975222;28;20236;-65
2024/01/12 06:22:53;;;;;;;1.23;1.23;;;;;;;-146.42;100.00;61981.06;4975199;28;20193;-65
2024/01/12 06:25:18;;;;;;;0.70;0.70;;;;;;;-146.42;100.00;61981.06;4975185;28;20562;-65
2024/01/12 06:27:44;;;;;;;1.57;1.53;;;;;;;-146.42;100.00;61981.06;4975074;28;20594;-65
2024/01/12 06:30:10;;;;;;;0.70;0.70;;;;;;;-146.42;100.00;61981.06;4975134;28;20174;-65
2024/01/12 06:32:39;;;;;;;2.70;2.60;;;;;;;-146.42;100.00;61981.06;4975032;28;20201;-65
2024/01/12 06:35:08;;;;;;;2.30;2.20;;;;;;;-146.42;100.00;61981.06;4974985;28;20177;-64
2024/01/12 06:37:33;;;;;;;5.30;2.07;;;;;;;-146.42;100.00;61981.06;4974895;28;20170;-65
2024/01/12 06:40:00;;;;;;;4.33;2.23;;;;;;;-146.42;100.00;61981.06;4974818;28;20197;-65
2024/01/12 06:42:26;;;;;;;4.60;4.20;;;;;;;-146.42;100.00;61981.06;4974803;28;20179;-64
2024/01/12 06:44:51;;;;;;;1.47;1.47;;;;;;;-146.42;100.00;61981.06;4974811;28;20174;-65
2024/01/12 06:47:16;;;;;;;4.47;4.07;;;;;;;-146.42;100.00;61981.06;4976207;28;20629;-65
2024/01/12 06:49:45;;;;;;;0.73;0.73;;;;;;;-146.42;100.00;61981.06;4995666;28;20192;-64
2024/01/12 06:52:13;;;;;;;0.50;0.50;;;;;;;-146.42;100.00;61981.06;4994059;28;20161;-65
2024/01/12 06:54:43;;;;;;;0.50;0.50;;;;;;;-146.42;100.00;61981.06;4993979;28;20181;-65
2024/01/12 06:57:09;;;;;;;1.40;1.40;;;;;;;-146.42;100.00;61981.06;4993718;28;20173;-65
2024/01/12 06:59:35;;;;;;;0.77;0.77;;;;;;;-146.42;100.00;61981.06;4995098;28;20251;-65
2024/01/12 07:02:00;;;;;;;0.50;0.50;;;;;;;-146.42;100.00;61981.06;4994258;28;20181;-65
2024/01/12 07:04:26;;;;;;;0.70;0.70;;;;;;;-146.42;100.00;61981.06;4984537;28;20227;-65
2024/01/12 07:06:52;;;;;;;0.50;0.50;;;;;;;-146.42;100.00;61981.06;4993796;28;20180;-65
2024/01/12 07:09:19;;;;;;;1.90;1.80;;;;;;;-146.42;100.00;61981.06;4993582;28;20158;-65
2024/01/12 07:11:45;;;;;;;0.90;0.90;;;;;;;-146.42;100.00;61981.06;4993592;28;20176;-65
2024/01/12 07:14:14;;;;;;;0.77;0.77;;;;;;;-146.42;100.00;61981.06;4993714;28;20263;-65
2024/01/12 07:16:40;;;;;;;4.90;4.60;;;;;;;-146.42;100.00;61981.06;4993052;28;20169;-65
2024/01/12 07:19:05;;;;;;;0.50;0.50;;;;;;;-146.42;100.00;61981.06;4993134;28;20173;-65
2024/01/12 07:21:31;;;;;;;0.50;0.50;;;;;;;-146.42;100.00;61981.06;4993433;28;20624;-65
2024/01/12 07:23:56;;;;;;;1.73;1.63;;;;;;;-146.42;100.00;61981.06;4993289;28;20177;-65
2024/01/12 07:26:22;;;;;;;3.73;3.53;;;;;;;-146.42;100.00;61981.06;4993722;28;20161;-65
2024/01/12 07:28:47;;;;;;;2.20;1.67;;;;;;;-146.42;100.00;61981.06;4993283;28;20169;-65
2024/01/12 07:31:12;;;;;;;34.03;25.33;;;;;;;-146.42;100.00;61981.06;4993158;28;20169;-65
2024/01/12 07:33:38;;;;;;;0.80;0.80;;;;;;;-146.42;100.00;61981.06;4993307;28;20232;-65
2024/01/12 07:36:04;;;;;;;1.40;1.23;;;;;;;-146.42;100.00;61981.06;4993231;28;20573;-66
2024/01/12 07:38:29;;;;;;;5.07;1.13;;;;;;;-146.42;100.00;61981.06;4975651;28;20184;-66
2024/01/12 07:40:55;;;;;;;5.13;4.83;;;;;;;-146.42;100.00;61981.06;4975545;28;20209;-66
2024/01/12 07:43:20;;;;;;;1.57;1.47;;;;;;;-146.42;100.00;61981.06;4992998;28;20177;-66
2024/01/12 07:45:46;;;;;;;2.23;1.63;;;;;;;-146.42;100.00;61981.06;4989062;28;20177;-66
2024/01/12 07:48:11;;;;;;;0.90;0.90;;;;;;;-146.42;100.00;61981.06;4973535;28;20169;-66
2024/01/12 07:50:37;;;;;;;3.87;3.47;;;;;;;-146.42;100.00;61981.06;4973308;28;20181;-66
2024/01/12 07:53:03;;;;;;;2.90;1.93;;;;;;;-146.42;100.00;61981.06;4973362;28;20652;-67
2024/01/12 07:55:28;;;;;;;2.20;2.10;;;;;;;-146.42;100.00;61981.06;4973293;28;20636;-66
2024/01/12 07:57:54;;;;;;;1.70;1.57;;;;;;;-146.42;100.00;61981.06;4955708;28;20204;-66
2024/01/12 08:00:19;;;;;;;1.13;1.13;;;;;;;-146.42;100.00;61981.06;4973223;28;20209;-66
2024/01/12 08:02:45;;;;;;;4.93;2.27;;;;;;;-146.42;100.00;61981.06;4972947;28;20265;-66
2024/01/12 08:05:11;;;;;;;0.73;0.73;;;;;;;-146.42;100.00;61981.06;4972908;28;20162;-66
2024/01/12 08:07:37;;;;;;;12.80;3.23;;;;;;;-146.42;100.00;61981.06;4973151;28;20245;-67
2024/01/12 08:10:03;;;;;;;0.90;0.90;;;;;;;-146.42;100.00;61981.06;4973158;28;20173;-66
2024/01/12 08:12:29;;;;;;;1.67;1.57;;;;;;;-146.42;100.00;61981.06;4973059;28;20252;-66
2024/01/12 08:14:54;;;;;;;1.33;1.27;;;;;;;-146.42;100.00;61981.06;4972516;28;20256;-67
2024/01/12 08:17:21;;;;;;;4.30;2.17;;;;;;;-146.42;100.00;61981.06;4972599;28;20224;-66
2024/01/12 08:19:47;;;;;;;4.13;1.60;;;;;;;-146.42;100.00;61981.06;4972728;28;20253;-66
2024/01/12 08:22:13;;;;;;;1.37;1.37;;;;;;;-146.42;100.00;61981.06;4972909;28;20154;-67
2024/01/12 08:24:39;;;;;;;2.30;2.10;;;;;;;-146.42;100.00;61981.06;4972792;28;20585;-66
2024/01/12 08:27:05;;;;;;;1.47;1.37;;;;;;;-146.42;100.00;61981.06;4972571;28;20306;-66
2024/01/12 08:29:31;;;;;;;1.37;1.33;;;;;;;-146.42;100.00;61981.06;4971722;28;20192;-66
2024/01/12 08:31:58;;;;;;;2.03;1.93;;;;;;;-146.42;100.00;61981.06;4972648;28;20158;-66
2024/01/12 08:34:24;;;;;;;0.50;0.50;;;;;;;-146.42;100.00;61981.06;4972511;28;20679;-66
2024/01/12 08:36:50;;;;;;;2.40;2.23;;;;;;;-146.42;100.00;61981.06;4972451;28;20180;-66
2024/01/12 08:39:16;;;;;;;0.93;0.93;;;;;;;-146.42;100.00;61981.06;4972270;28;20198;-65
2024/01/12 08:41:41;;;;;;;8.30;5.57;;;;;;;-146.42;100.00;61981.06;4972501;28;20181;-65
2024/01/12 08:44:07;;;;;;;1.37;1.30;;;;;;;-146.42;100.00;61981.06;4972701;28;20158;-66
2024/01/12 08:46:33;;;;;;;2.53;0.93;;;;;;;-146.42;100.00;61981.06;4972137;28;20181;-67
2024/01/12 08:49:00;;;;;;;1.57;1.47;;;;;;;-146.42;100.00;61981.06;4972319;28;20180;-65
2024/01/12 08:51:25;;;;;;;1.40;1.40;;;;;;;-146.42;100.00;61981.06;4972435;28;20169;-66
2024/01/12 08:53:51;;;;;;;2.10;1.27;;;;;;;-146.42;100.00;61981.06;4972414;28;20900;-66
2024/01/12 08:56:16;;;;;;;0.90;0.90;;;;;;;-146.42;100.00;61981.06;4972213;28;20158;-66
2024/01/12 08:58:42;;;;;;;7.33;2.47;;;;;;;-146.42;100.00;61981.06;4972198;28;20174;-66
2024/01/12 09:01:07;;;;;;;0.67;0.67;;;;;;;-146.42;100.00;61981.06;4971955;28;20222;-66
2024/01/12 09:03:33;;;;;;;2.60;2.47;;;;;;;-146.42;100.00;61981.06;4972004;28;20308;-65
2024/01/12 09:05:58;;;;;;;1.20;1.20;;;;;;;-146.42;100.00;61981.06;4972249;28;20162;-65
2024/01/12 09:08:24;;;;;;;2.20;2.10;;;;;;;-146.42;100.00;61981.06;4972040;28;20174;-65
2024/01/12 09:10:49;;;;;;;2.33;2.23;;;;;;;-146.42;100.00;61981.06;4972104;28;20162;-65
2024/01/12 09:13:15;;;;;;;1.93;1.83;;;;;;;-146.42;100.00;61981.06;4971629;28;20569;-65
2024/01/12 09:15:40;;;;;;;3.23;2.13;;;;;;;-146.42;100.00;61981.06;4971773;28;20177;-65
2024/01/12 09:18:06;;;;;;;1.97;1.87;;;;;;;-146.42;100.00;61981.06;4971465;28;20645;-66
2024/01/12 09:20:32;;;;;;;0.60;0.60;;;;;;;-146.42;100.00;61981.06;4970789;28;20216;-66
2024/01/12 09:22:58;;;;;;;1.70;1.60;;;;;;;-146.42;100.00;61981.06;4958018;28;20185;-65
2024/01/12 09:25:24;;;;;;;0.80;0.80;;;;;;;-146.42;100.00;61981.06;4976720;28;20228;-66
2024/01/12 09:27:50;;;;;;;1.00;0.97;;;;;;;-146.42;100.00;61981.06;4978679;28;20166;-66
2024/01/12 09:30:16;;;;;;;1.40;1.40;;;;;;;-146.42;100.00;61981.06;4970475;28;20180;-66
2024/01/12 09:32:41;;;;;;;1.10;1.10;;;;;;;-146.42;100.00;61981.06;4972014;28;20178;-65
2024/01/12 09:35:08;;;;;;;1.57;0.97;;;;;;;-146.42;100.00;61981.06;4969473;28;20174;-65
2024/01/12 09:37:33;;;;;;;3.57;3.37;;;;;;;-146.42;100.00;61981.06;4970324;28;20165;-65
2024/01/12 09:39:59;;;;;;;1.37;1.30;;;;;;;-146.42;100.00;61981.06;4969859;28;20699;-65
2024/01/12 09:42:30;;;;;;;2.13;2.00;;;;;;;-146.42;100.00;61981.06;4970280;28;20659;-65
2024/01/12 09:44:56;;;;;;;4.87;2.37;;;;;;;-146.42;100.00;61981.06;4970266;28;20170;-65
2024/01/12 09:47:21;;;;;;;1.93;1.77;;;;;;;-146.42;100.00;61981.06;4969916;28;20248;-66
2024/01/12 09:49:49;;;;;;;0.80;0.80;;;;;;;-146.42;100.00;61981.06;4970003;28;20535;-66
2024/01/12 09:52:15;;;;;;;1.40;1.30;;;;;;;-146.42;100.00;61981.06;4968814;28;20182;-65
2024/01/12 09:54:40;;;;;;;13.90;6.57;;;;;;;-146.42;100.00;61981.06;4980523;28;20176;-65
2024/01/12 09:57:06;;;;;;;2.00;1.83;;;;;;;-146.42;100.00;61981.06;4979568;28;20170;-65
2024/01/12 09:59:33;;;;;;;7.10;3.90;;;;;;;-146.42;100.00;61981.06;4982158;28;20278;-65
2024/01/12 10:02:01;;;;;;;2.23;1.53;;;;;;;-146.42;100.00;61981.06;4970961;28;20248;-64
2024/01/12 10:04:26;;;;;;;7.00;5.20;;;;;;;-146.42;100.00;61981.06;4970498;28;20286;-65
2024/01/12 10:06:52;;;;;;;5.20;2.63;;;;;;;-146.42;100.00;61981.06;4970816;28;20177;-67
2024/01/12 10:09:17;;;;;;;2.30;2.20;;;;;;;-146.42;100.00;61981.06;4970566;28;20182;-64
2024/01/12 10:11:43;;;;;;;2.10;1.67;;;;;;;-146.42;100.00;61981.06;4971337;28;20682;-65
2024/01/12 10:14:08;;;;;;;3.70;3.50;;;;;;;-146.42;100.00;61981.06;4970772;28;20583;-65
2024/01/12 10:16:34;;;;;;;4.73;2.97;;;;;;;-146.42;100.00;61981.06;4970465;28;20248;-65
2024/01/12 10:18:59;;;;;;;9.13;2.77;;;;;;;-146.42;100.00;61981.06;4953539;28;20178;-65
2024/01/12 10:21:25;;;;;;;6.30;1.80;;;;;;;-146.42;100.00;61981.06;4970718;28;20208;-65
2024/01/12 10:24:10;;;;;;;0.63;0.63;;;;;;;-146.42;100.00;61981.06;4963687;28;20177;-65
2024/01/12 10:26:37;;;;;;;5.17;3.40;;;;;;;-146.42;100.00;61981.06;4970917;28;20649;-65
2024/01/12 10:29:04;;;;;;;3.77;2.53;;;;;;;-146.42;100.00;61981.06;4971316;28;20287;-65
2024/01/12 10:31:30;;;;;;;5.83;3.57;;;;;;;-146.42;100.00;61981.06;4970964;28;20641;-65
2024/01/12 10:34:00;;;;;;;1.43;1.40;;;;;;;-146.42;100.00;61981.06;4970989;28;20185;-65
2024/01/12 10:36:27;;;;;;;1.00;1.00;;;;;;;-146.42;100.00;61981.06;4953723;28;20192;-65
2024/01/12 10:38:55;;;;;;;1.80;1.70;;;;;;;-146.42;100.00;61981.06;4971310;28;20169;-65
2024/01/12 10:41:24;;;;;;;1.27;1.27;;;;;;;-146.42;100.00;61981.06;4970645;28;20213;-65
2024/01/12 10:43:52;;;;;;;3.50;3.20;;;;;;;-146.42;100.00;61981.06;4969766;28;20181;-65
2024/01/12 10:46:29;;;;;;;3.80;2.30;;;;;;;-146.42;100.00;61981.06;4970125;28;20200;-66
2024/01/12 10:49:03;;;;;;;2.27;2.17;;;;;;;-146.42;100.00;61981.06;4970367;28;20192;-65
2024/01/12 10:51:34;;;;;;;10.37;2.90;;;;;;;-146.42;100.00;61981.06;4971574;28;20185;-65
2024/01/12 10:54:08;;;;;;;1.47;1.47;;;;;;;-146.42;100.00;61981.06;4974077;28;20176;-65
2024/01/12 10:56:35;;;;;;;4.70;3.53;;;;;;;-146.42;100.00;61981.06;4974008;28;20192;-65
2024/01/12 10:59:04;;;;;;;1.53;0.93;;;;;;;-146.42;100.00;61981.06;4974025;28;20275;-66
2024/01/12 11:01:32;;;;;;;1.63;1.53;;;;;;;-146.42;100.00;61981.06;4974273;28;20186;-65
2024/01/12 11:03:59;;;;;;;9.77;4.97;;;;;;;-146.42;100.00;61981.06;4973902;28;20229;-65